sensor_id;sensor_type;location;lat;lon;timestamp;pressure;altitude;pressure_sealevel;temperature;humidity
4123;BME280;2075;51.062;6.920;2023-06-14T00:01:09;92853.94;;;-144.48;40.56
4123;BME280;2075;51.062;6.920;2023-06-14T00:03:58;92874.22;;;-144.48;41.05
4123;BME280;2075;51.062;6.920;2023-06-14T00:06:44;92855.94;;;-144.48;42.08
4123;BME280;2075;51.062;6.920;2023-06-14T00:09:30;92941.25;;;-144.48;43.02
4123;BME280;2075;51.062;6.920;2023-06-14T00:12:15;92955.47;;;-144.48;43.24
4123;BME280;2075;51.062;6.920;2023-06-14T00:15:01;92971.72;;;-144.48;42.83
4123;BME280;2075;51.062;6.920;2023-06-14T00:17:46;92945.31;;;-144.48;43.14
4123;BME280;2075;51.062;6.920;2023-06-14T00:20:33;92920.94;;;-144.48;43.48
4123;BME280;2075;51.062;6.920;2023-06-14T00:23:18;92979.84;;;-144.48;44.07
4123;BME280;2075;51.062;6.920;2023-06-14T00:26:04;92947.34;;;-144.48;44.64
4123;BME280;2075;51.062;6.920;2023-06-14T00:28:49;92998.13;;;-144.48;46.27
4123;BME280;2075;51.062;6.920;2023-06-14T00:31:35;92973.75;;;-144.48;47.16
4123;BME280;2075;51.062;6.920;2023-06-14T00:34:20;92985.94;;;-144.48;48.40
4123;BME280;2075;51.062;6.920;2023-06-14T00:37:07;92937.19;;;-144.48;48.87
4123;BME280;2075;51.062;6.920;2023-06-14T00:39:53;92998.13;;;-144.48;48.58
4123;BME280;2075;51.062;6.920;2023-06-14T00:42:38;93022.47;;;-144.48;49.11
4123;BME280;2075;51.062;6.920;2023-06-14T00:45:24;93008.28;;;-144.48;48.69
4123;BME280;2075;51.062;6.920;2023-06-14T00:48:10;93022.47;;;-144.48;49.54
4123;BME280;2075;51.062;6.920;2023-06-14T00:50:56;93038.72;;;-144.48;50.62
4123;BME280;2075;51.062;6.920;2023-06-14T00:53:44;93042.78;;;-144.48;49.00
4123;BME280;2075;51.062;6.920;2023-06-14T00:56:30;93002.19;;;-144.48;49.34
4123;BME280;2075;51.062;6.920;2023-06-14T00:59:16;93022.47;;;-144.48;49.38
4123;BME280;2075;51.062;6.920;2023-06-14T01:02:01;93061.06;;;-144.48;49.40
4123;BME280;2075;51.062;6.920;2023-06-14T01:04:48;93038.72;;;-144.48;49.50
4123;BME280;2075;51.062;6.920;2023-06-14T01:07:46;93079.34;;;-144.48;49.67
4123;BME280;2075;51.062;6.920;2023-06-14T01:10:46;93057.00;;;-144.48;49.90
4123;BME280;2075;51.062;6.920;2023-06-14T01:13:38;93375.88;;;-144.48;50.67
4123;BME280;2075;51.062;6.920;2023-06-14T01:16:24;93073.25;;;-144.48;51.58
4123;BME280;2075;51.062;6.920;2023-06-14T01:19:12;93050.91;;;-144.48;51.32
4123;BME280;2075;51.062;6.920;2023-06-14T01:21:59;93063.09;;;-144.48;51.34
4123;BME280;2075;51.062;6.920;2023-06-14T01:24:47;93083.41;;;-144.48;51.40
4123;BME280;2075;51.062;6.920;2023-06-14T01:27:33;93128.09;;;-144.48;52.90
4123;BME280;2075;51.062;6.920;2023-06-14T01:30:20;93113.88;;;-144.48;53.53
4123;BME280;2075;51.062;6.920;2023-06-14T01:33:05;93130.13;;;-144.48;53.30
4123;BME280;2075;51.062;6.920;2023-06-14T01:35:51;93154.50;;;-144.48;53.84
4123;BME280;2075;51.062;6.920;2023-06-14T01:38:38;93144.34;;;-144.48;52.94
4123;BME280;2075;51.062;6.920;2023-06-14T01:41:25;93111.84;;;-144.48;53.18
4123;BME280;2075;51.062;6.920;2023-06-14T01:44:12;93146.38;;;-144.48;53.52
4123;BME280;2075;51.062;6.920;2023-06-14T01:46:59;93164.66;;;-144.48;53.85
4123;BME280;2075;51.062;6.920;2023-06-14T01:49:46;93122.00;;;-144.48;54.14
4123;BME280;2075;51.062;6.920;2023-06-14T01:52:32;93134.19;;;-144.48;54.60
4123;BME280;2075;51.062;6.920;2023-06-14T01:55:17;93124.03;;;-144.48;54.64
4123;BME280;2075;51.062;6.920;2023-06-14T01:58:07;93119.97;;;-144.48;55.30
4123;BME280;2075;51.062;6.920;2023-06-14T02:00:52;93132.16;;;-144.48;57.34
4123;BME280;2075;51.062;6.920;2023-06-14T02:03:39;93150.44;;;-144.48;60.06
4123;BME280;2075;51.062;6.920;2023-06-14T02:06:26;92990.00;;;-144.48;59.45
4123;BME280;2075;51.062;6.920;2023-06-14T02:09:11;93189.03;;;-144.48;60.65
4123;BME280;2075;51.062;6.920;2023-06-14T02:11:57;93140.28;;;-144.48;60.75
4123;BME280;2075;51.062;6.920;2023-06-14T02:14:46;93180.91;;;-144.48;59.83
4123;BME280;2075;51.062;6.920;2023-06-14T02:17:32;93211.38;;;-144.48;59.67
4123;BME280;2075;51.062;6.920;2023-06-14T02:20:22;93184.97;;;-144.48;60.13
4123;BME280;2075;51.062;6.920;2023-06-14T02:23:08;93154.50;;;-144.48;60.56
4123;BME280;2075;51.062;6.920;2023-06-14T02:25:53;93180.91;;;-144.48;60.35
4123;BME280;2075;51.062;6.920;2023-06-14T02:28:39;93184.97;;;-144.48;59.95
4123;BME280;2075;51.062;6.920;2023-06-14T02:31:28;93191.06;;;-144.48;60.75
4123;BME280;2075;51.062;6.920;2023-06-14T02:34:14;93199.19;;;-144.48;60.65
4123;BME280;2075;51.062;6.920;2023-06-14T02:37:00;93205.28;;;-144.48;61.44
4123;BME280;2075;51.062;6.920;2023-06-14T02:39:47;93174.81;;;-144.48;61.13
4123;BME280;2075;51.062;6.920;2023-06-14T02:42:32;93164.66;;;-144.48;60.55
4123;BME280;2075;51.062;6.920;2023-06-14T02:45:17;93231.69;;;-144.48;60.54
4123;BME280;2075;51.062;6.920;2023-06-14T02:48:04;93148.41;;;-144.48;60.02
4123;BME280;2075;51.062;6.920;2023-06-14T02:50:51;93162.63;;;-144.48;59.19
4123;BME280;2075;51.062;6.920;2023-06-14T02:53:36;93136.22;;;-144.48;61.95
4123;BME280;2075;51.062;6.920;2023-06-14T02:56:21;93189.03;;;-144.48;63.53
4123;BME280;2075;51.062;6.920;2023-06-14T02:59:07;93079.34;;;-144.48;62.52
4123;BME280;2075;51.062;6.920;2023-06-14T03:01:54;93172.78;;;-144.48;60.24
4123;BME280;2075;51.062;6.920;2023-06-14T03:04:40;93219.50;;;-144.48;58.53
4123;BME280;2075;51.062;6.920;2023-06-14T03:07:32;93144.34;;;-144.48;58.06
4123;BME280;2075;51.062;6.920;2023-06-14T03:10:19;93168.72;;;-144.48;57.07
4123;BME280;2075;51.062;6.920;2023-06-14T03:13:06;93144.34;;;-144.48;53.97
4123;BME280;2075;51.062;6.920;2023-06-14T03:15:51;93154.50;;;-144.48;53.22
4123;BME280;2075;51.062;6.920;2023-06-14T03:18:38;93197.16;;;-144.48;53.48
4123;BME280;2075;51.062;6.920;2023-06-14T03:21:26;93103.72;;;-144.48;54.03
4123;BME280;2075;51.062;6.920;2023-06-14T03:24:15;93189.03;;;-144.48;55.45
4123;BME280;2075;51.062;6.920;2023-06-14T03:27:01;93221.53;;;-144.48;56.83
4123;BME280;2075;51.062;6.920;2023-06-14T03:29:47;93245.91;;;-144.48;58.88
4123;BME280;2075;51.062;6.920;2023-06-14T03:32:32;93178.88;;;-144.48;59.81
4123;BME280;2075;51.062;6.920;2023-06-14T03:35:18;93254.03;;;-144.48;60.25
4123;BME280;2075;51.062;6.920;2023-06-14T03:38:07;93225.59;;;-144.48;63.02
4123;BME280;2075;51.062;6.920;2023-06-14T03:40:53;93235.75;;;-144.48;64.84
4123;BME280;2075;51.062;6.920;2023-06-14T03:43:38;93189.03;;;-144.48;66.69
4123;BME280;2075;51.062;6.920;2023-06-14T03:46:24;93215.44;;;-144.48;71.46
4123;BME280;2075;51.062;6.920;2023-06-14T03:49:10;93233.72;;;-144.48;73.05
4123;BME280;2075;51.062;6.920;2023-06-14T03:51:56;93199.19;;;-144.48;75.78
4123;BME280;2075;51.062;6.920;2023-06-14T03:54:44;93182.94;;;-144.48;76.51
4123;BME280;2075;51.062;6.920;2023-06-14T03:57:31;93556.66;;;-144.48;76.94
4123;BME280;2075;51.062;6.920;2023-06-14T04:00:17;93168.72;;;-144.48;76.26
4123;BME280;2075;51.062;6.920;2023-06-14T04:03:03;93134.19;;;-144.48;75.23
4123;BME280;2075;51.062;6.920;2023-06-14T04:05:49;93172.78;;;-144.48;74.65
4123;BME280;2075;51.062;6.920;2023-06-14T04:08:36;93182.94;;;-144.48;74.91
4123;BME280;2075;51.062;6.920;2023-06-14T04:11:25;93164.66;;;-144.48;72.31
4123;BME280;2075;51.062;6.920;2023-06-14T04:14:10;93028.56;;;-144.48;72.08
4123;BME280;2075;51.062;6.920;2023-06-14T04:16:56;93057.00;;;-144.48;70.55
4123;BME280;2075;51.062;6.920;2023-06-14T04:19:41;93095.59;;;-144.48;71.88
4123;BME280;2075;51.062;6.920;2023-06-14T04:22:27;92829.56;;;-144.48;69.86
4123;BME280;2075;51.062;6.920;2023-06-14T04:25:14;93111.84;;;-144.48;68.93
4123;BME280;2075;51.062;6.920;2023-06-14T04:28:03;93101.69;;;-144.48;67.68
4123;BME280;2075;51.062;6.920;2023-06-14T04:30:49;93054.97;;;-144.48;67.72
4123;BME280;2075;51.062;6.920;2023-06-14T04:33:36;93034.66;;;-144.48;65.74
4123;BME280;2075;51.062;6.920;2023-06-14T04:36:29;93018.41;;;-144.48;65.93
4123;BME280;2075;51.062;6.920;2023-06-14T04:39:16;92998.13;;;-144.48;65.45
4123;BME280;2075;51.062;6.920;2023-06-14T04:42:03;93002.19;;;-144.48;65.74
4123;BME280;2075;51.062;6.920;2023-06-14T04:44:53;92935.16;;;-144.48;65.31
4123;BME280;2075;51.062;6.920;2023-06-14T04:47:40;92898.59;;;-144.48;64.11
4123;BME280;2075;51.062;6.920;2023-06-14T04:50:26;92860.00;;;-144.48;62.23
4123;BME280;2075;51.062;6.920;2023-06-14T04:53:13;92405.13;;;-144.48;51.61
4123;BME280;2075;51.062;6.920;2023-06-14T04:55:59;91385.94;;;-144.48;36.19
4123;BME280;2075;51.062;6.920;2023-06-14T04:58:45;90480.69;;;-144.48;30.91
4123;BME280;2075;51.062;6.920;2023-06-14T05:01:31;90346.75;;;-144.48;27.82
4123;BME280;2075;51.062;6.920;2023-06-14T05:04:18;89890.19;;;-144.48;26.91
4123;BME280;2075;51.062;6.920;2023-06-14T05:07:06;89894.22;;;-144.48;25.96
4123;BME280;2075;51.062;6.920;2023-06-14T05:09:52;89462.06;;;-144.48;25.13
4123;BME280;2075;51.062;6.920;2023-06-14T05:12:39;89583.81;;;-144.48;24.42
4123;BME280;2075;51.062;6.920;2023-06-14T05:15:27;89092.84;;;-144.48;24.42
4123;BME280;2075;51.062;6.920;2023-06-14T05:18:14;88616.13;;;-144.48;22.84
4123;BME280;2075;51.062;6.920;2023-06-14T05:21:01;88606.00;;;-144.48;22.29
4123;BME280;2075;51.062;6.920;2023-06-14T05:23:51;88906.22;;;-144.48;22.51
4123;BME280;2075;51.062;6.920;2023-06-14T05:26:38;88865.63;;;-144.48;21.79
4123;BME280;2075;51.062;6.920;2023-06-14T05:29:23;87983.34;;;-144.48;21.40
4123;BME280;2075;51.062;6.920;2023-06-14T05:32:10;87888.03;;;-144.48;20.52
4123;BME280;2075;51.062;6.920;2023-06-14T05:34:56;87778.53;;;-144.48;20.59
4123;BME280;2075;51.062;6.920;2023-06-14T05:37:44;88119.22;;;-144.48;20.97
4123;BME280;2075;51.062;6.920;2023-06-14T05:40:30;87681.19;;;-144.48;20.17
4123;BME280;2075;51.062;6.920;2023-06-14T05:43:15;87815.03;;;-144.48;20.29
4123;BME280;2075;51.062;6.920;2023-06-14T05:46:01;87620.38;;;-144.48;20.39
4123;BME280;2075;51.062;6.920;2023-06-14T05:48:46;87326.34;;;-144.48;19.79
4123;BME280;2075;51.062;6.920;2023-06-14T05:51:33;87900.22;;;-144.48;20.40
4123;BME280;2075;51.062;6.920;2023-06-14T05:54:19;88188.19;;;-144.48;20.71
4123;BME280;2075;51.062;6.920;2023-06-14T05:57:05;88139.50;;;-144.48;20.73
4123;BME280;2075;51.062;6.920;2023-06-14T05:59:50;86785.03;;;-144.48;19.92
4123;BME280;2075;51.062;6.920;2023-06-14T06:02:36;86316.75;;;-144.48;19.22
4123;BME280;2075;51.062;6.920;2023-06-14T06:05:21;86685.69;;;-144.48;19.73
4123;BME280;2075;51.062;6.920;2023-06-14T06:08:08;86837.75;;;-144.48;20.06
4123;BME280;2075;51.062;6.920;2023-06-14T06:10:54;87861.69;;;-144.48;20.83
4123;BME280;2075;51.062;6.920;2023-06-14T06:13:39;87431.78;;;-144.48;20.18
4123;BME280;2075;51.062;6.920;2023-06-14T06:16:25;87723.78;;;-144.48;20.45
4123;BME280;2075;51.062;6.920;2023-06-14T06:19:11;88449.81;;;-144.48;21.26
4123;BME280;2075;51.062;6.920;2023-06-14T06:21:56;87470.31;;;-144.48;20.46
4123;BME280;2075;51.062;6.920;2023-06-14T06:24:48;87950.91;;;-144.48;20.77
4123;BME280;2075;51.062;6.920;2023-06-14T06:27:34;88597.88;;;-144.48;21.29
4123;BME280;2075;51.062;6.920;2023-06-14T06:30:21;88494.44;;;-144.48;21.40
4123;BME280;2075;51.062;6.920;2023-06-14T06:33:07;87790.69;;;-144.48;20.48
4123;BME280;2075;51.062;6.920;2023-06-14T06:35:52;87859.66;;;-144.48;20.71
4123;BME280;2075;51.062;6.920;2023-06-14T06:38:38;87547.38;;;-144.48;20.30
4123;BME280;2075;51.062;6.920;2023-06-14T06:41:25;86949.25;;;-144.48;19.94
4123;BME280;2075;51.062;6.920;2023-06-14T06:44:10;87156.03;;;-144.48;20.02
4123;BME280;2075;51.062;6.920;2023-06-14T06:46:57;88356.53;;;-144.48;20.84
4123;BME280;2075;51.062;6.920;2023-06-14T06:49:43;89358.59;;;-144.48;22.19
4123;BME280;2075;51.062;6.920;2023-06-14T06:52:28;88752.03;;;-144.48;21.35
4123;BME280;2075;51.062;6.920;2023-06-14T06:55:14;88468.06;;;-144.48;20.68
4123;BME280;2075;51.062;6.920;2023-06-14T06:58:01;88482.28;;;-144.48;21.39
4123;BME280;2075;51.062;6.920;2023-06-14T07:00:48;87912.38;;;-144.48;20.49
4123;BME280;2075;51.062;6.920;2023-06-14T07:03:34;87525.06;;;-144.48;19.80
4123;BME280;2075;51.062;6.920;2023-06-14T07:06:19;88472.13;;;-144.48;20.88
4123;BME280;2075;51.062;6.920;2023-06-14T07:09:05;88920.41;;;-144.48;21.04
4123;BME280;2075;51.062;6.920;2023-06-14T07:11:56;88873.75;;;-144.48;21.16
4123;BME280;2075;51.062;6.920;2023-06-14T07:14:43;88871.72;;;-144.48;21.03
4123;BME280;2075;51.062;6.920;2023-06-14T07:17:28;89267.31;;;-144.48;21.88
4123;BME280;2075;51.062;6.920;2023-06-14T07:20:14;89029.94;;;-144.48;21.42
4123;BME280;2075;51.062;6.920;2023-06-14T07:23:00;88441.72;;;-144.48;20.82
4123;BME280;2075;51.062;6.920;2023-06-14T07:25:46;87849.50;;;-144.48;19.88
4123;BME280;2075;51.062;6.920;2023-06-14T07:28:32;87898.19;;;-144.48;20.15
4123;BME280;2075;51.062;6.920;2023-06-14T07:31:18;87563.59;;;-144.48;19.70
4123;BME280;2075;51.062;6.920;2023-06-14T07:34:03;88293.66;;;-144.48;20.15
4123;BME280;2075;51.062;6.920;2023-06-14T07:36:49;88504.59;;;-144.48;20.00
4123;BME280;2075;51.062;6.920;2023-06-14T07:39:35;89202.38;;;-144.48;20.98
4123;BME280;2075;51.062;6.920;2023-06-14T07:42:20;88581.66;;;-144.48;20.51
4123;BME280;2075;51.062;6.920;2023-06-14T07:45:06;88938.66;;;-144.48;20.97
4123;BME280;2075;51.062;6.920;2023-06-14T07:47:53;89013.72;;;-144.48;20.51
4123;BME280;2075;51.062;6.920;2023-06-14T07:50:39;89382.94;;;-144.48;20.63
4123;BME280;2075;51.062;6.920;2023-06-14T07:53:24;89368.75;;;-144.48;20.53
4123;BME280;2075;51.062;6.920;2023-06-14T07:56:10;89322.09;;;-144.48;20.56
4123;BME280;2075;51.062;6.920;2023-06-14T07:58:55;89297.72;;;-144.48;20.00
4123;BME280;2075;51.062;6.920;2023-06-14T08:01:41;88843.31;;;-144.48;19.59
4123;BME280;2075;51.062;6.920;2023-06-14T08:04:33;88561.38;;;-144.48;19.46
4123;BME280;2075;51.062;6.920;2023-06-14T08:07:19;88100.97;;;-144.48;19.25
4123;BME280;2075;51.062;6.920;2023-06-14T08:10:04;88991.41;;;-144.48;19.84
4123;BME280;2075;51.062;6.920;2023-06-14T08:12:51;89376.84;;;-144.48;20.14
4123;BME280;2075;51.062;6.920;2023-06-14T08:15:36;89230.78;;;-144.48;20.23
4123;BME280;2075;51.062;6.920;2023-06-14T08:18:21;88330.16;;;-144.48;19.45
4123;BME280;2075;51.062;6.920;2023-06-14T08:21:08;88711.47;;;-144.48;19.35
4123;BME280;2075;51.062;6.920;2023-06-14T08:23:54;88443.75;;;-144.48;19.41
4123;BME280;2075;51.062;6.920;2023-06-14T08:26:39;88249.03;;;-144.48;19.63
4123;BME280;2075;51.062;6.920;2023-06-14T08:29:25;89078.63;;;-144.48;20.15
4123;BME280;2075;51.062;6.920;2023-06-14T08:32:13;88946.78;;;-144.48;19.83
4123;BME280;2075;51.062;6.920;2023-06-14T08:34:58;88871.72;;;-144.48;19.89
4123;BME280;2075;51.062;6.920;2023-06-14T08:37:45;88597.88;;;-144.48;19.81
4123;BME280;2075;51.062;6.920;2023-06-14T08:40:31;89145.59;;;-144.48;20.10
4123;BME280;2075;51.062;6.920;2023-06-14T08:43:16;89111.09;;;-144.48;20.00
4123;BME280;2075;51.062;6.920;2023-06-14T08:46:03;89951.06;;;-144.48;21.34
4123;BME280;2075;51.062;6.920;2023-06-14T08:48:49;90218.91;;;-144.48;22.19
4123;BME280;2075;51.062;6.920;2023-06-14T08:51:36;89875.97;;;-144.48;21.87
4123;BME280;2075;51.062;6.920;2023-06-14T08:54:25;89178.03;;;-144.48;20.69
4123;BME280;2075;51.062;6.920;2023-06-14T08:57:11;88867.66;;;-144.48;19.96
4123;BME280;2075;51.062;6.920;2023-06-14T08:59:59;89372.78;;;-144.48;21.13
4123;BME280;2075;51.062;6.920;2023-06-14T09:02:54;89908.44;;;-144.48;21.55
4123;BME280;2075;51.062;6.920;2023-06-14T09:05:42;89650.75;;;-144.48;21.28
4123;BME280;2075;51.062;6.920;2023-06-14T09:08:28;89612.19;;;-144.48;21.33
4123;BME280;2075;51.062;6.920;2023-06-14T09:11:18;89940.91;;;-144.48;21.73
4123;BME280;2075;51.062;6.920;2023-06-14T09:14:04;90614.63;;;-144.48;23.11
4123;BME280;2075;51.062;6.920;2023-06-14T09:16:52;91550.38;;;-144.48;25.69
4123;BME280;2075;51.062;6.920;2023-06-14T09:19:40;91619.41;;;-144.48;26.93
4123;BME280;2075;51.062;6.920;2023-06-14T09:22:26;91690.44;;;-144.48;27.46
4123;BME280;2075;51.062;6.920;2023-06-14T09:25:15;91694.50;;;-144.48;27.98
4123;BME280;2075;51.062;6.920;2023-06-14T09:28:11;91767.59;;;-144.48;28.18
4123;BME280;2075;51.062;6.920;2023-06-14T09:30:57;92214.28;;;-144.48;29.13
4123;BME280;2075;51.062;6.920;2023-06-14T09:33:43;91873.16;;;-144.48;28.69
4123;BME280;2075;51.062;6.920;2023-06-14T09:36:32;91883.31;;;-144.48;28.17
4123;BME280;2075;51.062;6.920;2023-06-14T09:39:18;91800.09;;;-144.48;28.70
4123;BME280;2075;51.062;6.920;2023-06-14T09:42:16;91879.25;;;-144.48;29.04
4123;BME280;2075;51.062;6.920;2023-06-14T09:45:06;91944.22;;;-144.48;29.52
4123;BME280;2075;51.062;6.920;2023-06-14T09:47:53;91972.66;;;-144.48;29.73
4123;BME280;2075;51.062;6.920;2023-06-14T09:50:44;91903.63;;;-144.48;29.87
4123;BME280;2075;51.062;6.920;2023-06-14T09:53:30;91923.94;;;-144.48;30.05
4123;BME280;2075;51.062;6.920;2023-06-14T09:56:21;91779.78;;;-144.48;29.51
4123;BME280;2075;51.062;6.920;2023-06-14T09:59:10;91783.84;;;-144.48;29.44
4123;BME280;2075;51.062;6.920;2023-06-14T10:01:59;91783.84;;;-144.48;29.49
4123;BME280;2075;51.062;6.920;2023-06-14T10:04:58;91869.09;;;-144.48;29.95
4123;BME280;2075;51.062;6.920;2023-06-14T10:07:53;91798.06;;;-144.48;29.79
4123;BME280;2075;51.062;6.920;2023-06-14T10:10:39;91852.88;;;-144.48;30.11
4123;BME280;2075;51.062;6.920;2023-06-14T10:13:25;91836.63;;;-144.48;31.05
4123;BME280;2075;51.062;6.920;2023-06-14T10:16:15;91834.59;;;-144.48;31.08
4123;BME280;2075;51.062;6.920;2023-06-14T10:19:11;91787.91;;;-144.48;30.83
4123;BME280;2075;51.062;6.920;2023-06-14T10:22:02;91816.31;;;-144.48;30.87
4123;BME280;2075;51.062;6.920;2023-06-14T10:24:48;91905.66;;;-144.48;31.45
4123;BME280;2075;51.062;6.920;2023-06-14T10:27:35;91930.03;;;-144.48;31.98
4123;BME280;2075;51.062;6.920;2023-06-14T10:30:25;91800.09;;;-144.48;31.98
4123;BME280;2075;51.062;6.920;2023-06-14T10:33:14;91814.28;;;-144.48;31.53
4123;BME280;2075;51.062;6.920;2023-06-14T10:36:10;91802.13;;;-144.48;31.89
4123;BME280;2075;51.062;6.920;2023-06-14T10:39:06;91856.94;;;-144.48;31.52
4123;BME280;2075;51.062;6.920;2023-06-14T10:41:53;91812.25;;;-144.48;31.68
4123;BME280;2075;51.062;6.920;2023-06-14T10:44:41;91974.69;;;-144.48;31.58
4123;BME280;2075;51.062;6.920;2023-06-14T10:47:28;91863.03;;;-144.48;32.38
4123;BME280;2075;51.062;6.920;2023-06-14T10:50:14;91840.69;;;-144.48;32.11
4123;BME280;2075;51.062;6.920;2023-06-14T10:53:21;91895.50;;;-144.48;32.79
4123;BME280;2075;51.062;6.920;2023-06-14T10:56:07;91873.16;;;-144.48;32.53
4123;BME280;2075;51.062;6.920;2023-06-14T10:58:56;91852.88;;;-144.48;32.92
4123;BME280;2075;51.062;6.920;2023-06-14T11:01:53;91873.16;;;-144.48;32.74
4123;BME280;2075;51.062;6.920;2023-06-14T11:04:47;91917.84;;;-144.48;32.68
4123;BME280;2075;51.062;6.920;2023-06-14T11:07:42;91787.91;;;-144.48;32.12
4123;BME280;2075;51.062;6.920;2023-06-14T11:10:36;91838.66;;;-144.48;32.24
4123;BME280;2075;51.062;6.920;2023-06-14T11:13:24;91867.06;;;-144.48;32.01
4123;BME280;2075;51.062;6.920;2023-06-14T11:16:11;91775.72;;;-144.48;32.10
4123;BME280;2075;51.062;6.920;2023-06-14T11:18:57;91838.66;;;-144.48;31.41
4123;BME280;2075;51.062;6.920;2023-06-14T11:21:42;91836.63;;;-144.48;31.61
4123;BME280;2075;51.062;6.920;2023-06-14T11:24:32;91818.34;;;-144.48;31.00
4123;BME280;2075;51.062;6.920;2023-06-14T11:27:19;91735.13;;;-144.48;31.39
4123;BME280;2075;51.062;6.920;2023-06-14T11:30:07;91863.03;;;-144.48;31.53
4123;BME280;2075;51.062;6.920;2023-06-14T11:32:55;91796.03;;;-144.48;31.42
4123;BME280;2075;51.062;6.920;2023-06-14T11:35:41;91755.41;;;-144.48;31.55
4123;BME280;2075;51.062;6.920;2023-06-14T11:38:26;91806.16;;;-144.48;31.13
4123;BME280;2075;51.062;6.920;2023-06-14T11:41:12;91718.88;;;-144.48;30.45
4123;BME280;2075;51.062;6.920;2023-06-14T11:44:00;91680.31;;;-144.48;30.12
4123;BME280;2075;51.062;6.920;2023-06-14T11:46:45;91678.28;;;-144.48;30.46
4123;BME280;2075;51.062;6.920;2023-06-14T11:49:35;91747.28;;;-144.48;30.29
4123;BME280;2075;51.062;6.920;2023-06-14T11:52:23;91787.91;;;-144.48;30.68
4123;BME280;2075;51.062;6.920;2023-06-14T11:55:09;91791.97;;;-144.48;30.81
4123;BME280;2075;51.062;6.920;2023-06-14T11:57:55;91854.91;;;-144.48;30.55
4123;BME280;2075;51.062;6.920;2023-06-14T12:00:42;91820.38;;;-144.48;30.37
4123;BME280;2075;51.062;6.920;2023-06-14T12:03:29;91708.72;;;-144.48;30.26
4123;BME280;2075;51.062;6.920;2023-06-14T12:06:15;91243.84;;;-144.48;29.71
4123;BME280;2075;51.062;6.920;2023-06-14T12:09:04;91753.38;;;-144.48;29.89
4123;BME280;2075;51.062;6.920;2023-06-14T12:11:51;91745.28;;;-144.48;29.51
4123;BME280;2075;51.062;6.920;2023-06-14T12:14:47;91759.47;;;-144.48;29.58
4123;BME280;2075;51.062;6.920;2023-06-14T12:17:35;91962.50;;;-144.48;29.63
4123;BME280;2075;51.062;6.920;2023-06-14T12:20:29;91722.94;;;-144.48;29.21
4123;BME280;2075;51.062;6.920;2023-06-14T12:23:15;91745.28;;;-144.48;29.58
4123;BME280;2075;51.062;6.920;2023-06-14T12:26:01;91779.78;;;-144.48;29.52
4123;BME280;2075;51.062;6.920;2023-06-14T12:28:51;91741.22;;;-144.48;29.34
4123;BME280;2075;51.062;6.920;2023-06-14T12:31:37;91779.78;;;-144.48;29.63
4123;BME280;2075;51.062;6.920;2023-06-14T12:34:25;91682.34;;;-144.48;29.91
4123;BME280;2075;51.062;6.920;2023-06-14T12:37:13;91743.22;;;-144.48;29.72
4123;BME280;2075;51.062;6.920;2023-06-14T12:39:58;91771.66;;;-144.48;29.34
4123;BME280;2075;51.062;6.920;2023-06-14T12:42:50;91787.91;;;-144.48;29.10
4123;BME280;2075;51.062;6.920;2023-06-14T12:45:35;91791.97;;;-144.48;29.05
4123;BME280;2075;51.062;6.920;2023-06-14T12:48:21;92210.22;;;-144.48;28.44
4123;BME280;2075;51.062;6.920;2023-06-14T12:51:08;91794.00;;;-144.48;28.26
4123;BME280;2075;51.062;6.920;2023-06-14T12:53:53;91727.00;;;-144.48;27.80
4123;BME280;2075;51.062;6.920;2023-06-14T12:56:40;91700.59;;;-144.48;27.59
4123;BME280;2075;51.062;6.920;2023-06-14T12:59:27;91794.00;;;-144.48;28.22
4123;BME280;2075;51.062;6.920;2023-06-14T13:02:21;91483.38;;;-144.48;27.84
4123;BME280;2075;51.062;6.920;2023-06-14T13:05:12;91471.19;;;-144.48;28.35
4123;BME280;2075;51.062;6.920;2023-06-14T13:07:59;91731.06;;;-144.48;28.50
4123;BME280;2075;51.062;6.920;2023-06-14T13:10:44;91686.38;;;-144.48;28.38
4123;BME280;2075;51.062;6.920;2023-06-14T13:13:30;91564.59;;;-144.48;27.93
4123;BME280;2075;51.062;6.920;2023-06-14T13:16:20;91489.47;;;-144.48;28.55
4123;BME280;2075;51.062;6.920;2023-06-14T13:19:05;91619.41;;;-144.48;28.38
4123;BME280;2075;51.062;6.920;2023-06-14T13:21:51;91666.09;;;-144.48;28.86
4123;BME280;2075;51.062;6.920;2023-06-14T13:24:39;91666.09;;;-144.48;28.96
4123;BME280;2075;51.062;6.920;2023-06-14T13:27:27;91753.38;;;-144.48;29.13
4123;BME280;2075;51.062;6.920;2023-06-14T13:30:13;91655.94;;;-144.48;28.90
4123;BME280;2075;51.062;6.920;2023-06-14T13:33:01;91564.59;;;-144.48;28.61
4123;BME280;2075;51.062;6.920;2023-06-14T13:35:46;91599.09;;;-144.48;28.68
4123;BME280;2075;51.062;6.920;2023-06-14T13:38:33;91611.28;;;-144.48;29.13
4123;BME280;2075;51.062;6.920;2023-06-14T13:41:23;91649.84;;;-144.48;29.10
4123;BME280;2075;51.062;6.920;2023-06-14T13:44:08;91560.53;;;-144.48;28.91
4123;BME280;2075;51.062;6.920;2023-06-14T13:46:55;91722.94;;;-144.48;29.20
4123;BME280;2075;51.062;6.920;2023-06-14T13:49:40;91731.06;;;-144.48;29.18
4123;BME280;2075;51.062;6.920;2023-06-14T13:52:26;91312.88;;;-144.48;28.86
4123;BME280;2075;51.062;6.920;2023-06-14T13:55:11;91739.19;;;-144.48;28.82
4123;BME280;2075;51.062;6.920;2023-06-14T13:57:59;91694.50;;;-144.48;28.73
4123;BME280;2075;51.062;6.920;2023-06-14T14:00:45;91649.84;;;-144.48;28.09
4123;BME280;2075;51.062;6.920;2023-06-14T14:03:30;91556.47;;;-144.48;28.16
4123;BME280;2075;51.062;6.920;2023-06-14T14:06:16;91560.53;;;-144.48;27.38
4123;BME280;2075;51.062;6.920;2023-06-14T14:09:02;91690.44;;;-144.48;27.91
4123;BME280;2075;51.062;6.920;2023-06-14T14:11:48;91615.34;;;-144.48;28.48
4123;BME280;2075;51.062;6.920;2023-06-14T14:14:35;91629.53;;;-144.48;29.13
4123;BME280;2075;51.062;6.920;2023-06-14T14:17:22;91678.28;;;-144.48;28.93
4123;BME280;2075;51.062;6.920;2023-06-14T14:20:11;92015.28;;;-144.48;28.91
4123;BME280;2075;51.062;6.920;2023-06-14T14:23:00;91700.59;;;-144.48;29.13
4123;BME280;2075;51.062;6.920;2023-06-14T14:25:46;91747.28;;;-144.48;28.84
4123;BME280;2075;51.062;6.920;2023-06-14T14:28:32;91599.09;;;-144.48;28.60
4123;BME280;2075;51.062;6.920;2023-06-14T14:31:19;91662.03;;;-144.48;28.03
4123;BME280;2075;51.062;6.920;2023-06-14T14:34:04;91657.97;;;-144.48;27.80
4123;BME280;2075;51.062;6.920;2023-06-14T14:36:49;91763.53;;;-144.48;28.33
4123;BME280;2075;51.062;6.920;2023-06-14T14:39:36;91749.31;;;-144.48;27.71
4123;BME280;2075;51.062;6.920;2023-06-14T14:42:22;91727.00;;;-144.48;27.95
4123;BME280;2075;51.062;6.920;2023-06-14T14:45:08;91617.38;;;-144.48;27.97